sensor_id;sensor_type;location;lat;lon;timestamp;pressure;altitude;pressure_sealevel;temperature
70333;BMP280;57747;43.548;-5.704;2022-08-19T00:01:55;102282.19;;;16.28
70333;BMP280;57747;43.548;-5.704;2022-08-19T00:04:23;102283.44;;;16.41
70333;BMP280;57747;43.548;-5.704;2022-08-19T00:06:49;102278.69;;;16.27
70333;BMP280;57747;43.548;-5.704;2022-08-19T00:09:16;102278.41;;;16.24
70333;BMP280;57747;43.548;-5.704;2022-08-19T00:11:42;102279.53;;;16.23
70333;BMP280;57747;43.548;-5.704;2022-08-19T00:14:10;102273.25;;;16.32
70333;BMP280;57747;43.548;-5.704;2022-08-19T00:16:38;102264.25;;;16.42
70333;BMP280;57747;43.548;-5.704;2022-08-19T00:19:04;102265.28;;;16.46
70333;BMP280;57747;43.548;-5.704;2022-08-19T00:21:32;102266.31;;;16.50
70333;BMP280;57747;43.548;-5.704;2022-08-19T00:24:03;102273.72;;;16.40
70333;BMP280;57747;43.548;-5.704;2022-08-19T00:26:30;102276.56;;;16.19
70333;BMP280;57747;43.548;-5.704;2022-08-19T00:28:56;102269.88;;;16.06
70333;BMP280;57747;43.548;-5.704;2022-08-19T00:31:21;102268.00;;;15.96
70333;BMP280;57747;43.548;-5.704;2022-08-19T00:33:47;102268.28;;;16.00
70333;BMP280;57747;43.548;-5.704;2022-08-19T00:36:15;102265.59;;;15.95
70333;BMP280;57747;43.548;-5.704;2022-08-19T00:38:41;102273.63;;;16.10
70333;BMP280;57747;43.548;-5.704;2022-08-19T00:41:08;102274.22;;;16.02
70333;BMP280;57747;43.548;-5.704;2022-08-19T00:43:33;102278.34;;;15.89
70333;BMP280;57747;43.548;-5.704;2022-08-19T00:46:01;102269.13;;;15.90
70333;BMP280;57747;43.548;-5.704;2022-08-19T00:48:29;102265.88;;;15.93
70333;BMP280;57747;43.548;-5.704;2022-08-19T00:50:58;102267.69;;;16.08
70333;BMP280;57747;43.548;-5.704;2022-08-19T00:53:24;102269.03;;;16.16
70333;BMP280;57747;43.548;-5.704;2022-08-19T00:55:52;102270.56;;;16.27
70333;BMP280;57747;43.548;-5.704;2022-08-19T00:58:21;102260.50;;;16.33
70333;BMP280;57747;43.548;-5.704;2022-08-19T01:00:47;102248.88;;;16.32
70333;BMP280;57747;43.548;-5.704;2022-08-19T01:03:14;102254.34;;;16.27
70333;BMP280;57747;43.548;-5.704;2022-08-19T01:05:41;102239.72;;;16.28
70333;BMP280;57747;43.548;-5.704;2022-08-19T01:08:08;102240.50;;;16.29
70333;BMP280;57747;43.548;-5.704;2022-08-19T01:10:36;102250.28;;;16.25
70333;BMP280;57747;43.548;-5.704;2022-08-19T01:13:02;102244.78;;;16.35
70333;BMP280;57747;43.548;-5.704;2022-08-19T01:15:30;102242.09;;;16.35
70333;BMP280;57747;43.548;-5.704;2022-08-19T01:17:56;102231.53;;;16.39
70333;BMP280;57747;43.548;-5.704;2022-08-19T01:20:23;102232.09;;;16.30
70333;BMP280;57747;43.548;-5.704;2022-08-19T01:22:53;102234.88;;;16.20
70333;BMP280;57747;43.548;-5.704;2022-08-19T01:25:20;102228.34;;;16.26
70333;BMP280;57747;43.548;-5.704;2022-08-19T01:27:47;102230.88;;;16.12
70333;BMP280;57747;43.548;-5.704;2022-08-19T01:30:15;102227.38;;;16.07
70333;BMP280;57747;43.548;-5.704;2022-08-19T01:32:41;102225.53;;;15.97
70333;BMP280;57747;43.548;-5.704;2022-08-19T01:35:08;102225.81;;;15.95
70333;BMP280;57747;43.548;-5.704;2022-08-19T01:40:09;102219.00;;;16.03
70333;BMP280;57747;43.548;-5.704;2022-08-19T01:42:34;102216.06;;;16.05
70333;BMP280;57747;43.548;-5.704;2022-08-19T01:45:00;102219.56;;;16.05
70333;BMP280;57747;43.548;-5.704;2022-08-19T01:47:25;102211.69;;;16.09
70333;BMP280;57747;43.548;-5.704;2022-08-19T01:49:51;102208.69;;;16.10
70333;BMP280;57747;43.548;-5.704;2022-08-19T01:52:19;102209.28;;;16.02
70333;BMP280;57747;43.548;-5.704;2022-08-19T01:54:45;102203.88;;;16.02
70333;BMP280;57747;43.548;-5.704;2022-08-19T01:57:12;102208.44;;;16.07
70333;BMP280;57747;43.548;-5.704;2022-08-19T01:59:37;102195.44;;;16.09
70333;BMP280;57747;43.548;-5.704;2022-08-19T02:02:05;102196.28;;;16.04
70333;BMP280;57747;43.548;-5.704;2022-08-19T02:04:32;102192.22;;;16.01
70333;BMP280;57747;43.548;-5.704;2022-08-19T02:06:59;102195.47;;;16.04
70333;BMP280;57747;43.548;-5.704;2022-08-19T02:09:27;102185.44;;;16.09
70333;BMP280;57747;43.548;-5.704;2022-08-19T02:11:53;102189.25;;;16.03
70333;BMP280;57747;43.548;-5.704;2022-08-19T02:14:18;102186.28;;;16.05
70333;BMP280;57747;43.548;-5.704;2022-08-19T02:16:44;102188.41;;;16.08
70333;BMP280;57747;43.548;-5.704;2022-08-19T02:19:09;102187.88;;;16.06
70333;BMP280;57747;43.548;-5.704;2022-08-19T02:21:35;102184.41;;;16.00
70333;BMP280;57747;43.548;-5.704;2022-08-19T02:24:00;102185.47;;;16.04
70333;BMP280;57747;43.548;-5.704;2022-08-19T02:26:26;102187.13;;;16.00
70333;BMP280;57747;43.548;-5.704;2022-08-19T02:28:55;102187.66;;;15.97
70333;BMP280;57747;43.548;-5.704;2022-08-19T02:31:22;102189.03;;;15.94
70333;BMP280;57747;43.548;-5.704;2022-08-19T02:33:48;102182.03;;;15.93
70333;BMP280;57747;43.548;-5.704;2022-08-19T02:36:15;102190.97;;;15.89
70333;BMP280;57747;43.548;-5.704;2022-08-19T02:38:41;102190.50;;;15.76
70333;BMP280;57747;43.548;-5.704;2022-08-19T02:41:07;102188.09;;;15.70
70333;BMP280;57747;43.548;-5.704;2022-08-19T02:43:35;102184.84;;;15.68
70333;BMP280;57747;43.548;-5.704;2022-08-19T02:46:22;102196.47;;;15.78
70333;BMP280;57747;43.548;-5.704;2022-08-19T02:48:48;102188.81;;;15.86
70333;BMP280;57747;43.548;-5.704;2022-08-19T02:51:18;102199.38;;;15.87
70333;BMP280;57747;43.548;-5.704;2022-08-19T02:53:44;102197.50;;;15.82
70333;BMP280;57747;43.548;-5.704;2022-08-19T02:56:10;102193.41;;;15.85
70333;BMP280;57747;43.548;-5.704;2022-08-19T02:58:35;102195.56;;;15.88
70333;BMP280;57747;43.548;-5.704;2022-08-19T03:01:01;102191.47;;;15.96
70333;BMP280;57747;43.548;-5.704;2022-08-19T03:03:27;102195.84;;;15.87
70333;BMP280;57747;43.548;-5.704;2022-08-19T03:06:02;102195.31;;;15.85
70333;BMP280;57747;43.548;-5.704;2022-08-19T03:08:27;102200.22;;;15.82
70333;BMP280;57747;43.548;-5.704;2022-08-19T03:10:53;102191.25;;;15.87
70333;BMP280;57747;43.548;-5.704;2022-08-19T03:13:21;102191.50;;;15.91
70333;BMP280;57747;43.548;-5.704;2022-08-19T03:15:48;102186.38;;;15.89
70333;BMP280;57747;43.548;-5.704;2022-08-19T03:18:14;102183.38;;;15.91
70333;BMP280;57747;43.548;-5.704;2022-08-19T03:20:43;102193.09;;;15.92
70333;BMP280;57747;43.548;-5.704;2022-08-19T03:23:09;102189.34;;;15.88
70333;BMP280;57747;43.548;-5.704;2022-08-19T03:25:39;102185.88;;;15.77
70333;BMP280;57747;43.548;-5.704;2022-08-19T03:28:07;102181.78;;;15.79
70333;BMP280;57747;43.548;-5.704;2022-08-19T03:30:32;102190.19;;;15.83
70333;BMP280;57747;43.548;-5.704;2022-08-19T03:32:58;102184.78;;;15.83
70333;BMP280;57747;43.548;-5.704;2022-08-19T03:35:23;102181.28;;;15.82
70333;BMP280;57747;43.548;-5.704;2022-08-19T03:37:48;102184.84;;;15.68
70333;BMP280;57747;43.548;-5.704;2022-08-19T03:40:14;102179.50;;;15.57
70333;BMP280;57747;43.548;-5.704;2022-08-19T03:42:42;102183.53;;;15.65
70333;BMP280;57747;43.548;-5.704;2022-08-19T03:45:08;102187.53;;;15.68
70333;BMP280;57747;43.548;-5.704;2022-08-19T03:47:33;102179.44;;;15.68
70333;BMP280;57747;43.548;-5.704;2022-08-19T03:49:58;102187.28;;;15.64
70333;BMP280;57747;43.548;-5.704;2022-08-19T03:52:24;102179.25;;;15.54
70333;BMP280;57747;43.548;-5.704;2022-08-19T03:54:52;102177.06;;;15.56
70333;BMP280;57747;43.548;-5.704;2022-08-19T03:57:17;102190.34;;;15.52
70333;BMP280;57747;43.548;-5.704;2022-08-19T04:02:37;102194.84;;;15.62
70333;BMP280;57747;43.548;-5.704;2022-08-19T04:05:02;102190.03;;;15.59
70333;BMP280;57747;43.548;-5.704;2022-08-19T04:07:28;102192.19;;;15.57
70333;BMP280;57747;43.548;-5.704;2022-08-19T04:09:53;102193.88;;;15.42
70333;BMP280;57747;43.548;-5.704;2022-08-19T04:12:19;102187.63;;;15.52
70333;BMP280;57747;43.548;-5.704;2022-08-19T04:14:45;102188.13;;;15.59
70333;BMP280;57747;43.548;-5.704;2022-08-19T04:17:10;102188.16;;;15.54
70333;BMP280;57747;43.548;-5.704;2022-08-19T04:19:41;102181.69;;;15.45
70333;BMP280;57747;43.548;-5.704;2022-08-19T04:22:08;102190.38;;;15.37
70333;BMP280;57747;43.548;-5.704;2022-08-19T04:24:36;102190.38;;;15.37
70333;BMP280;57747;43.548;-5.704;2022-08-19T04:27:02;102184.22;;;15.26
70333;BMP280;57747;43.548;-5.704;2022-08-19T04:29:28;102191.22;;;15.22
70333;BMP280;57747;43.548;-5.704;2022-08-19T04:31:55;102188.81;;;15.10
70333;BMP280;57747;43.548;-5.704;2022-08-19T04:34:22;102179.66;;;15.06
70333;BMP280;57747;43.548;-5.704;2022-08-19T04:36:48;102178.28;;;15.14
70333;BMP280;57747;43.548;-5.704;2022-08-19T04:39:18;102180.69;;;15.20
70333;BMP280;57747;43.548;-5.704;2022-08-19T04:41:44;102184.22;;;15.10
70333;BMP280;57747;43.548;-5.704;2022-08-19T04:44:28;102184.78;;;15.07
70333;BMP280;57747;43.548;-5.704;2022-08-19T04:46:55;102175.31;;;15.15
70333;BMP280;57747;43.548;-5.704;2022-08-19T04:49:22;102175.00;;;15.17
70333;BMP280;57747;43.548;-5.704;2022-08-19T04:51:48;102176.94;;;15.11
70333;BMP280;57747;43.548;-5.704;2022-08-19T04:54:14;102170.22;;;15.08
70333;BMP280;57747;43.548;-5.704;2022-08-19T04:56:40;102166.69;;;15.03
70333;BMP280;57747;43.548;-5.704;2022-08-19T04:59:06;102174.50;;;15.04
70333;BMP280;57747;43.548;-5.704;2022-08-19T05:01:33;102182.09;;;15.07
70333;BMP280;57747;43.548;-5.704;2022-08-19T05:03:59;102172.88;;;14.98
70333;BMP280;57747;43.548;-5.704;2022-08-19T05:06:26;102178.59;;;14.97
70333;BMP280;57747;43.548;-5.704;2022-08-19T05:08:51;102185.06;;;14.96
70333;BMP280;57747;43.548;-5.704;2022-08-19T05:11:18;102179.91;;;14.99
70333;BMP280;57747;43.548;-5.704;2022-08-19T05:13:45;102176.09;;;15.10
70333;BMP280;57747;43.548;-5.704;2022-08-19T05:16:12;102172.59;;;15.10
70333;BMP280;57747;43.548;-5.704;2022-08-19T05:18:38;102181.25;;;15.17
70333;BMP280;57747;43.548;-5.704;2022-08-19T05:21:23;102177.72;;;15.17
70333;BMP280;57747;43.548;-5.704;2022-08-19T05:24:07;102176.94;;;15.11
70333;BMP280;57747;43.548;-5.704;2022-08-19T05:26:36;102170.69;;;15.16
70333;BMP280;57747;43.548;-5.704;2022-08-19T05:29:02;102182.59;;;15.25
70333;BMP280;57747;43.548;-5.704;2022-08-19T05:31:28;102180.16;;;15.13
70333;BMP280;57747;43.548;-5.704;2022-08-19T05:33:53;102180.41;;;15.22
70333;BMP280;57747;43.548;-5.704;2022-08-19T05:36:19;102189.59;;;15.21
70333;BMP280;57747;43.548;-5.704;2022-08-19T05:38:45;102187.44;;;15.23
70333;BMP280;57747;43.548;-5.704;2022-08-19T05:41:11;102189.63;;;15.26
70333;BMP280;57747;43.548;-5.704;2022-08-19T05:43:40;102189.84;;;15.35
70333;BMP280;57747;43.548;-5.704;2022-08-19T05:46:05;102198.78;;;15.30
70333;BMP280;57747;43.548;-5.704;2022-08-19T05:48:32;102202.25;;;15.36
70333;BMP280;57747;43.548;-5.704;2022-08-19T05:50:57;102202.03;;;15.32
70333;BMP280;57747;43.548;-5.704;2022-08-19T05:53:24;102193.63;;;15.34
70333;BMP280;57747;43.548;-5.704;2022-08-19T05:55:50;102194.69;;;15.43
70333;BMP280;57747;43.548;-5.704;2022-08-19T05:58:15;102193.88;;;15.42
70333;BMP280;57747;43.548;-5.704;2022-08-19T06:00:42;102198.72;;;15.40
70333;BMP280;57747;43.548;-5.704;2022-08-19T06:03:08;102197.91;;;15.50
70333;BMP280;57747;43.548;-5.704;2022-08-19T06:05:33;102206.03;;;15.50
70333;BMP280;57747;43.548;-5.704;2022-08-19T06:07:59;102211.69;;;15.54
70333;BMP280;57747;43.548;-5.704;2022-08-19T06:10:24;102211.06;;;15.62
70333;BMP280;57747;43.548;-5.704;2022-08-19T06:12:53;102210.56;;;15.65
70333;BMP280;57747;43.548;-5.704;2022-08-19T06:15:19;102211.63;;;15.64
70333;BMP280;57747;43.548;-5.704;2022-08-19T06:17:44;102219.19;;;15.72
70333;BMP280;57747;43.548;-5.704;2022-08-19T06:20:11;102216.19;;;15.74
70333;BMP280;57747;43.548;-5.704;2022-08-19T06:22:41;102225.41;;;15.73
70333;BMP280;57747;43.548;-5.704;2022-08-19T06:25:07;102211.34;;;15.66
70333;BMP280;57747;43.548;-5.704;2022-08-19T06:27:36;102207.75;;;15.80
70333;BMP280;57747;43.548;-5.704;2022-08-19T06:30:03;102213.13;;;15.86
70333;BMP280;57747;43.548;-5.704;2022-08-19T06:32:28;102211.31;;;15.81
70333;BMP280;57747;43.548;-5.704;2022-08-19T06:34:54;102213.41;;;15.89
70333;BMP280;57747;43.548;-5.704;2022-08-19T06:37:20;102210.41;;;15.96
70333;BMP280;57747;43.548;-5.704;2022-08-19T06:39:47;102216.13;;;15.89
70333;BMP280;57747;43.548;-5.704;2022-08-19T06:42:12;102210.19;;;15.87
70333;BMP280;57747;43.548;-5.704;2022-08-19T06:44:42;102212.88;;;15.92
70333;BMP280;57747;43.548;-5.704;2022-08-19T06:47:08;102204.16;;;15.95
70333;BMP280;57747;43.548;-5.704;2022-08-19T06:49:34;102206.28;;;16.09
70333;BMP280;57747;43.548;-5.704;2022-08-19T06:52:01;102200.25;;;16.22
70333;BMP280;57747;43.548;-5.704;2022-08-19T06:54:27;102205.44;;;16.13
70333;BMP280;57747;43.548;-5.704;2022-08-19T06:56:54;102201.09;;;16.17
70333;BMP280;57747;43.548;-5.704;2022-08-19T06:59:23;102197.47;;;16.32
70333;BMP280;57747;43.548;-5.704;2022-08-19T07:01:56;102196.41;;;16.23
70333;BMP280;57747;43.548;-5.704;2022-08-19T07:04:24;102189.88;;;16.29
70333;BMP280;57747;43.548;-5.704;2022-08-19T07:06:50;102196.03;;;16.40
70333;BMP280;57747;43.548;-5.704;2022-08-19T07:09:17;102200.91;;;16.43
70333;BMP280;57747;43.548;-5.704;2022-08-19T07:11:49;102197.28;;;16.53
70333;BMP280;57747;43.548;-5.704;2022-08-19T07:14:17;102196.09;;;16.69
70333;BMP280;57747;43.548;-5.704;2022-08-19T07:16:43;102189.75;;;16.79
70333;BMP280;57747;43.548;-5.704;2022-08-19T07:19:13;102190.13;;;16.97
70333;BMP280;57747;43.548;-5.704;2022-08-19T07:21:39;102194.44;;;16.98
70333;BMP280;57747;43.548;-5.704;2022-08-19T07:24:06;102187.56;;;17.05
70333;BMP280;57747;43.548;-5.704;2022-08-19T07:26:33;102200.91;;;17.26
70333;BMP280;57747;43.548;-5.704;2022-08-19T07:28:58;102202.59;;;17.22
70333;BMP280;57747;43.548;-5.704;2022-08-19T07:31:26;102199.69;;;17.37
70333;BMP280;57747;43.548;-5.704;2022-08-19T07:33:53;102200.31;;;17.53
70333;BMP280;57747;43.548;-5.704;2022-08-19T07:36:22;102205.34;;;17.60
70333;BMP280;57747;43.548;-5.704;2022-08-19T07:38:48;102204.81;;;17.63
70333;BMP280;57747;43.548;-5.704;2022-08-19T07:41:15;102198.63;;;17.57
70333;BMP280;57747;43.548;-5.704;2022-08-19T07:43:41;102195.06;;;17.81
70333;BMP280;57747;43.548;-5.704;2022-08-19T07:46:11;102193.34;;;17.85
70333;BMP280;57747;43.548;-5.704;2022-08-19T07:48:39;102194.75;;;18.01
70333;BMP280;57747;43.548;-5.704;2022-08-19T07:51:07;102208.38;;;18.15
70333;BMP280;57747;43.548;-5.704;2022-08-19T07:53:33;102202.75;;;18.45
70333;BMP280;57747;43.548;-5.704;2022-08-19T07:55:59;102210.38;;;18.75
70333;BMP280;57747;43.548;-5.704;2022-08-19T07:58:28;102206.66;;;18.99
70333;BMP280;57747;43.548;-5.704;2022-08-19T08:00:53;102210.16;;;19.27
70333;BMP280;57747;43.548;-5.704;2022-08-19T08:03:20;102204.91;;;19.45
70333;BMP280;57747;43.548;-5.704;2022-08-19T08:05:45;102206.22;;;19.47
70333;BMP280;57747;43.548;-5.704;2022-08-19T08:08:29;102205.13;;;19.34
70333;BMP280;57747;43.548;-5.704;2022-08-19T08:11:15;102198.78;;;19.76
70333;BMP280;57747;43.548;-5.704;2022-08-19T08:13:40;102206.34;;;19.79
70333;BMP280;57747;43.548;-5.704;2022-08-19T08:16:06;102195.34;;;19.84
70333;BMP280;57747;43.548;-5.704;2022-08-19T08:18:32;102190.34;;;20.00
70333;BMP280;57747;43.548;-5.704;2022-08-19T08:20:58;102191.72;;;20.42
70333;BMP280;57747;43.548;-5.704;2022-08-19T08:23:24;102198.03;;;20.60
70333;BMP280;57747;43.548;-5.704;2022-08-19T08:25:50;102201.19;;;20.85
70333;BMP280;57747;43.548;-5.704;2022-08-19T08:28:18;102194.56;;;20.69
70333;BMP280;57747;43.548;-5.704;2022-08-19T08:30:44;102191.50;;;20.70
70333;BMP280;57747;43.548;-5.704;2022-08-19T08:33:16;102198.13;;;20.87
70333;BMP280;57747;43.548;-5.704;2022-08-19T08:35:42;102195.25;;;21.00
70333;BMP280;57747;43.548;-5.704;2022-08-19T08:38:07;102191.94;;;21.03
70333;BMP280;57747;43.548;-5.704;2022-08-19T08:40:46;102205.59;;;21.12
70333;BMP280;57747;43.548;-5.704;2022-08-19T08:48:24;102190.06;;;21.65
70333;BMP280;57747;43.548;-5.704;2022-08-19T08:50:52;102184.75;;;21.69
70333;BMP280;57747;43.548;-5.704;2022-08-19T08:53:20;102190.38;;;21.81
70333;BMP280;57747;43.548;-5.704;2022-08-19T08:55:45;102191.59;;;22.01
70333;BMP280;57747;43.548;-5.704;2022-08-19T08:58:17;102191.81;;;21.61
70333;BMP280;57747;43.548;-5.704;2022-08-19T09:00:46;102191.78;;;21.96
70333;BMP280;57747;43.548;-5.704;2022-08-19T09:03:17;102192.06;;;22.21
70333;BMP280;57747;43.548;-5.704;2022-08-19T09:11:03;102194.06;;;22.41
70333;BMP280;57747;43.548;-5.704;2022-08-19T09:13:33;102191.78;;;21.96
70333;BMP280;57747;43.548;-5.704;2022-08-19T09:16:03;102195.41;;;22.26
70333;BMP280;57747;43.548;-5.704;2022-08-19T09:18:40;102201.34;;;22.67
70333;BMP280;57747;43.548;-5.704;2022-08-19T09:21:06;102200.47;;;22.75
70333;BMP280;57747;43.548;-5.704;2022-08-19T09:23:37;102199.94;;;22.61
70333;BMP280;57747;43.548;-5.704;2022-08-19T09:26:23;102202.91;;;22.76
70333;BMP280;57747;43.548;-5.704;2022-08-19T09:28:49;102196.91;;;22.83
70333;BMP280;57747;43.548;-5.704;2022-08-19T09:31:18;102195.63;;;22.81
70333;BMP280;57747;43.548;-5.704;2022-08-19T09:33:44;102200.78;;;21.79
70333;BMP280;57747;43.548;-5.704;2022-08-19T09:36:10;102198.03;;;21.96
70333;BMP280;57747;43.548;-5.704;2022-08-19T09:38:36;102191.34;;;22.32
70333;BMP280;57747;43.548;-5.704;2022-08-19T09:41:09;102199.00;;;22.56
70333;BMP280;57747;43.548;-5.704;2022-08-19T09:43:37;102185.84;;;22.41
70333;BMP280;57747;43.548;-5.704;2022-08-19T09:46:03;102187.28;;;22.47
70333;BMP280;57747;43.548;-5.704;2022-08-19T09:48:32;102196.53;;;22.16
70333;BMP280;57747;43.548;-5.704;2022-08-19T09:51:08;102194.72;;;22.76
70333;BMP280;57747;43.548;-5.704;2022-08-19T09:53:37;102187.34;;;22.30
70333;BMP280;57747;43.548;-5.704;2022-08-19T09:56:03;102193.69;;;22.81
70333;BMP280;57747;43.548;-5.704;2022-08-19T09:58:29;102189.28;;;22.68
70333;BMP280;57747;43.548;-5.704;2022-08-19T10:00:55;102188.34;;;22.16
70333;BMP280;57747;43.548;-5.704;2022-08-19T10:03:21;102188.63;;;22.32
70333;BMP280;57747;43.548;-5.704;2022-08-19T10:05:47;102187.78;;;22.49
70333;BMP280;57747;43.548;-5.704;2022-08-19T10:08:16;102190.94;;;22.13
70333;BMP280;57747;43.548;-5.704;2022-08-19T10:10:42;102193.69;;;22.04
70333;BMP280;57747;43.548;-5.704;2022-08-19T10:13:11;102189.47;;;22.63
70333;BMP280;57747;43.548;-5.704;2022-08-19T10:15:36;102193.22;;;22.02
70333;BMP280;57747;43.548;-5.704;2022-08-19T10:18:04;102193.06;;;22.84
70333;BMP280;57747;43.548;-5.704;2022-08-19T10:20:29;102191.59;;;22.01
70333;BMP280;57747;43.548;-5.704;2022-08-19T10:22:55;102194.72;;;21.73
70333;BMP280;57747;43.548;-5.704;2022-08-19T10:25:25;102195.16;;;22.02
70333;BMP280;57747;43.548;-5.704;2022-08-19T10:27:52;102198.59;;;22.28
70333;BMP280;57747;43.548;-5.704;2022-08-19T10:30:18;102196.50;;;21.78
70333;BMP280;57747;43.548;-5.704;2022-08-19T10:32:44;102194.59;;;22.26
70333;BMP280;57747;43.548;-5.704;2022-08-19T10:35:11;102196.50;;;22.34
70333;BMP280;57747;43.548;-5.704;2022-08-19T10:37:37;102201.59;;;21.88
70333;BMP280;57747;43.548;-5.704;2022-08-19T10:40:04;102195.66;;;21.95
70333;BMP280;57747;43.548;-5.704;2022-08-19T10:42:30;102196.63;;;21.81
70333;BMP280;57747;43.548;-5.704;2022-08-19T10:44:56;102197.25;;;21.87
70333;BMP280;57747;43.548;-5.704;2022-08-19T10:47:24;102195.00;;;22.07
70333;BMP280;57747;43.548;-5.704;2022-08-19T10:49:49;102203.38;;;21.58
70333;BMP280;57747;43.548;-5.704;2022-08-19T10:52:34;102196.81;;;21.41
70333;BMP280;57747;43.548;-5.704;2022-08-19T10:55:00;102199.94;;;22.13
70333;BMP280;57747;43.548;-5.704;2022-08-19T10:57:44;102198.09;;;22.73
70333;BMP280;57747;43.548;-5.704;2022-08-19T11:00:12;102196.28;;;22.00
70333;BMP280;57747;43.548;-5.704;2022-08-19T11:02:40;102202.06;;;21.81
70333;BMP280;57747;43.548;-5.704;2022-08-19T11:05:06;102198.19;;;22.47
70333;BMP280;57747;43.548;-5.704;2022-08-19T11:07:32;102188.22;;;22.81
70333;BMP280;57747;43.548;-5.704;2022-08-19T11:09:58;102189.84;;;23.24
70333;BMP280;57747;43.548;-5.704;2022-08-19T11:12:23;102181.94;;;23.10
70333;BMP280;57747;43.548;-5.704;2022-08-19T11:14:49;102181.84;;;22.98
70333;BMP280;57747;43.548;-5.704;2022-08-19T11:17:15;102182.72;;;23.11
70333;BMP280;57747;43.548;-5.704;2022-08-19T11:19:40;102184.53;;;22.47
70333;BMP280;57747;43.548;-5.704;2022-08-19T11:22:10;102191.16;;;23.27
70333;BMP280;57747;43.548;-5.704;2022-08-19T11:24:38;102182.41;;;23.67
70333;BMP280;57747;43.548;-5.704;2022-08-19T11:27:05;102182.66;;;23.20
70333;BMP280;57747;43.548;-5.704;2022-08-19T11:29:31;102174.94;;;22.71
70333;BMP280;57747;43.548;-5.704;2022-08-19T11:31:59;102178.50;;;22.92
70333;BMP280;57747;43.548;-5.704;2022-08-19T11:34:26;102175.88;;;22.75
70333;BMP280;57747;43.548;-5.704;2022-08-19T11:36:53;102170.72;;;23.03
70333;BMP280;57747;43.548;-5.704;2022-08-19T11:39:22;102169.72;;;23.50
70333;BMP280;57747;43.548;-5.704;2022-08-19T11:41:51;102175.38;;;22.82
70333;BMP280;57747;43.548;-5.704;2022-08-19T11:44:17;102174.97;;;22.92
70333;BMP280;57747;43.548;-5.704;2022-08-19T11:46:45;102172.69;;;23.36
70333;BMP280;57747;43.548;-5.704;2022-08-19T11:49:12;102178.75;;;22.78
70333;BMP280;57747;43.548;-5.704;2022-08-19T11:51:38;102176.81;;;23.09
70333;BMP280;57747;43.548;-5.704;2022-08-19T11:54:07;102182.66;;;23.20
70333;BMP280;57747;43.548;-5.704;2022-08-19T11:56:32;102177.19;;;23.20
70333;BMP280;57747;43.548;-5.704;2022-08-19T11:58:57;102180.44;;;22.92
70333;BMP280;57747;43.548;-5.704;2022-08-19T12:01:26;102184.75;;;23.23
70333;BMP280;57747;43.548;-5.704;2022-08-19T12:03:52;102176.22;;;23.58
70333;BMP280;57747;43.548;-5.704;2022-08-19T12:06:19;102176.00;;;24.21
70333;BMP280;57747;43.548;-5.704;2022-08-19T12:08:49;102161.13;;;23.51
70333;BMP280;57747;43.548;-5.704;2022-08-19T12:11:14;102157.03;;;23.91
70333;BMP280;57747;43.548;-5.704;2022-08-19T12:13:42;102164.41;;;23.78
70333;BMP280;57747;43.548;-5.704;2022-08-19T12:16:12;102161.81;;;23.48
70333;BMP280;57747;43.548;-5.704;2022-08-19T12:18:41;102164.91;;;23.47
70333;BMP280;57747;43.548;-5.704;2022-08-19T12:21:19;102167.47;;;23.64
70333;BMP280;57747;43.548;-5.704;2022-08-19T12:23:46;102166.78;;;23.67
70333;BMP280;57747;43.548;-5.704;2022-08-19T12:26:11;102170.22;;;23.43
70333;BMP280;57747;43.548;-5.704;2022-08-19T12:28:37;102163.47;;;23.62
70333;BMP280;57747;43.548;-5.704;2022-08-19T12:31:03;102170.44;;;23.17
70333;BMP280;57747;43.548;-5.704;2022-08-19T12:33:29;102162.88;;;23.56
70333;BMP280;57747;43.548;-5.704;2022-08-19T12:35:54;102169.09;;;23.78
70333;BMP280;57747;43.548;-5.704;2022-08-19T12:38:22;102158.88;;;24.11
70333;BMP280;57747;43.548;-5.704;2022-08-19T12:40:49;102159.91;;;24.44
70333;BMP280;57747;43.548;-5.704;2022-08-19T12:43:19;102157.88;;;23.58
70333;BMP280;57747;43.548;-5.704;2022-08-19T12:45:45;102159.94;;;23.61
70333;BMP280;57747;43.548;-5.704;2022-08-19T12:48:11;102149.09;;;23.77
70333;BMP280;57747;43.548;-5.704;2022-08-19T12:50:40;102155.56;;;23.93
70333;BMP280;57747;43.548;-5.704;2022-08-19T12:53:06;102150.06;;;23.93
70333;BMP280;57747;43.548;-5.704;2022-08-19T12:55:31;102140.41;;;23.63
70333;BMP280;57747;43.548;-5.704;2022-08-19T12:57:59;102141.03;;;23.81
70333;BMP280;57747;43.548;-5.704;2022-08-19T13:00:27;102135.69;;;23.84
70333;BMP280;57747;43.548;-5.704;2022-08-19T13:02:52;102134.78;;;24.54
70333;BMP280;57747;43.548;-5.704;2022-08-19T13:05:23;102130.38;;;24.78
70333;BMP280;57747;43.548;-5.704;2022-08-19T13:07:49;102128.72;;;24.48
70333;BMP280;57747;43.548;-5.704;2022-08-19T13:10:17;102135.78;;;23.76
70333;BMP280;57747;43.548;-5.704;2022-08-19T13:12:43;102131.38;;;23.62
70333;BMP280;57747;43.548;-5.704;2022-08-19T13:15:09;102128.38;;;24.25
70333;BMP280;57747;43.548;-5.704;2022-08-19T13:17:38;102127.09;;;24.60
70333;BMP280;57747;43.548;-5.704;2022-08-19T13:20:05;102133.09;;;24.12
70333;BMP280;57747;43.548;-5.704;2022-08-19T13:22:32;102131.59;;;24.40
70333;BMP280;57747;43.548;-5.704;2022-08-19T13:25:00;102130.47;;;23.25
70333;BMP280;57747;43.548;-5.704;2022-08-19T13:27:26;102129.84;;;24.10
70333;BMP280;57747;43.548;-5.704;2022-08-19T13:29:51;102129.53;;;24.49
70333;BMP280;57747;43.548;-5.704;2022-08-19T13:32:35;102140.38;;;24.21
70333;BMP280;57747;43.548;-5.704;2022-08-19T13:35:19;102134.47;;;24.84
70333;BMP280;57747;43.548;-5.704;2022-08-19T13:37:45;102132.81;;;24.95
70333;BMP280;57747;43.548;-5.704;2022-08-19T13:40:12;102135.22;;;25.25
70333;BMP280;57747;43.548;-5.704;2022-08-19T13:42:40;102129.09;;;25.76
70333;BMP280;57747;43.548;-5.704;2022-08-19T13:45:08;102133.13;;;24.78
70333;BMP280;57747;43.548;-5.704;2022-08-19T13:47:34;102132.63;;;24.88
70333;BMP280;57747;43.548;-5.704;2022-08-19T13:50:02;102133.66;;;25.40
70333;BMP280;57747;43.548;-5.704;2022-08-19T13:52:27;102128.78;;;25.33
70333;BMP280;57747;43.548;-5.704;2022-08-19T13:54:55;102129.06;;;25.28
70333;BMP280;57747;43.548;-5.704;2022-08-19T13:57:21;102118.88;;;25.00
70333;BMP280;57747;43.548;-5.704;2022-08-19T13:59:47;102112.69;;;24.75
70333;BMP280;57747;43.548;-5.704;2022-08-19T14:02:12;102110.09;;;25.39